Time;durP1;ratioP1;P1;durP2;ratioP2;P2;SDS_P1;SDS_P2;PMS_P1;PMS_P2;Temp;Humidity;BMP_temperature;BMP_pressure;BME280_temperature;BME280_humidity;BME280_pressure;Samples;Min_cycle;Max_cycle;Signal;HPM_P1;HPM_P2
2021/12/10 00:00:43;;;;;;;31.33;19.42;;;;;;;;;;5055893;28;20102;-55
2021/12/10 00:03:15;;;;;;;28.13;17.33;;;;;;;;;;5055964;28;20032;-55
2021/12/10 00:05:56;;;;;;;40.55;23.30;;;;;;;;;;5055634;28;20036;-56
2021/12/10 00:08:22;;;;;;;33.15;21.70;;;;;;;;;;5055709;28;20013;-57
2021/12/10 00:10:50;;;;;;;33.10;19.70;;;;;;;;;;5055750;28;20025;-57
2021/12/10 00:13:16;;;;;;;33.13;20.52;;;;;;;;;;5055670;28;20025;-57
2021/12/10 00:15:43;;;;;;;35.17;21.08;;;;;;;;;;5055720;28;20102;-56
2021/12/10 00:18:11;;;;;;;47.63;25.75;;;;;;;;;;5044603;28;20100;-57
2021/12/10 00:20:37;;;;;;;30.38;19.35;;;;;;;;;;5035610;28;20385;-57
2021/12/10 00:23:07;;;;;;;54.83;31.15;;;;;;;;;;5036224;28;20057;-57
2021/12/10 00:25:38;;;;;;;35.33;21.05;;;;;;;;;;5035558;28;20022;-65
2021/12/10 00:28:13;;;;;;;27.58;17.23;;;;;;;;;;5035673;28;20362;-58
2021/12/10 00:30:54;;;;;;;44.15;25.77;;;;;;;;;;5035778;28;20017;-57
2021/12/10 00:33:21;;;;;;;39.22;24.15;;;;;;;;;;5035691;28;20108;-58
2021/12/10 00:35:48;;;;;;;38.03;21.98;;;;;;;;;;5034191;28;20030;-58
2021/12/10 00:38:14;;;;;;;35.22;21.90;;;;;;;;;;5035451;28;20057;-59
2021/12/10 00:40:43;;;;;;;30.00;19.23;;;;;;;;;;5035223;28;20515;-59
2021/12/10 00:43:09;;;;;;;29.55;17.83;;;;;;;;;;5035241;28;20489;-55
2021/12/10 00:45:38;;;;;;;49.45;26.75;;;;;;;;;;5035185;28;20022;-57
2021/12/10 00:48:04;;;;;;;38.45;21.20;;;;;;;;;;5034654;28;20117;-57
2021/12/10 00:50:32;;;;;;;29.40;18.52;;;;;;;;;;5034929;28;20024;-57
2021/12/10 00:52:58;;;;;;;33.78;20.55;;;;;;;;;;5035263;28;20064;-56
2021/12/10 00:55:25;;;;;;;34.25;21.50;;;;;;;;;;5033929;28;20025;-57
2021/12/10 00:57:53;;;;;;;36.92;22.58;;;;;;;;;;5035147;28;20017;-57
2021/12/10 01:00:20;;;;;;;34.95;22.08;;;;;;;;;;5034811;28;20025;-56
2021/12/10 01:02:47;;;;;;;29.88;18.67;;;;;;;;;;5034346;28;20029;-57
2021/12/10 01:05:14;;;;;;;37.65;21.90;;;;;;;;;;5034825;28;20060;-55
2021/12/10 01:07:41;;;;;;;38.78;23.30;;;;;;;;;;5034342;28;20026;-57
2021/12/10 01:10:15;;;;;;;36.00;20.48;;;;;;;;;;5034934;28;20032;-58
2021/12/10 01:12:43;;;;;;;29.30;18.30;;;;;;;;;;5034891;28;20044;-56
2021/12/10 01:28:35;;;;;;;27.42;17.83;;;;;;;;;;5034188;28;20029;-57
2021/12/10 01:31:01;;;;;;;31.08;19.67;;;;;;;;;;5034427;28;20070;-59
2021/12/10 01:33:27;;;;;;;39.35;24.20;;;;;;;;;;5034465;28;20457;-57
2021/12/10 01:35:56;;;;;;;31.40;18.95;;;;;;;;;;5034247;28;20104;-59
2021/12/10 01:38:23;;;;;;;31.35;19.60;;;;;;;;;;5034468;28;20104;-57
2021/12/10 01:40:52;;;;;;;28.02;19.65;;;;;;;;;;5034236;28;20438;-58
2021/12/10 01:43:25;;;;;;;34.15;21.48;;;;;;;;;;5034111;28;20029;-58
2021/12/10 01:45:56;;;;;;;27.15;18.90;;;;;;;;;;5034135;28;20159;-57
2021/12/10 01:48:44;;;;;;;32.78;19.63;;;;;;;;;;5033539;28;20466;-59
2021/12/10 01:51:12;;;;;;;26.00;17.17;;;;;;;;;;5034085;28;20021;-59
2021/12/10 01:53:42;;;;;;;34.00;21.38;;;;;;;;;;5034101;28;20056;-57
2021/12/10 01:56:11;;;;;;;30.58;19.30;;;;;;;;;;5033985;28;20060;-50
2021/12/10 01:58:38;;;;;;;29.20;19.00;;;;;;;;;;5033977;28;20021;-55
2021/12/10 02:01:10;;;;;;;27.65;17.77;;;;;;;;;;5033921;28;20350;-54
2021/12/10 02:03:36;;;;;;;27.63;17.35;;;;;;;;;;5033802;28;20029;-58
2021/12/10 02:06:04;;;;;;;26.58;16.80;;;;;;;;;;5033766;28;20116;-57
2021/12/10 02:08:30;;;;;;;25.70;17.27;;;;;;;;;;5033271;28;20043;-57
2021/12/10 02:11:00;;;;;;;28.02;18.70;;;;;;;;;;5034115;28;20017;-57
2021/12/10 02:13:27;;;;;;;28.05;18.38;;;;;;;;;;5031264;28;20042;-57
2021/12/10 02:15:54;;;;;;;27.25;18.52;;;;;;;;;;5032792;28;20060;-57
2021/12/10 02:18:21;;;;;;;23.27;16.63;;;;;;;;;;5032881;28;20028;-56
2021/12/10 02:20:52;;;;;;;24.38;15.90;;;;;;;;;;5032988;28;20125;-57
2021/12/10 02:23:19;;;;;;;25.77;16.52;;;;;;;;;;5033844;28;20398;-56
2021/12/10 02:25:45;;;;;;;24.55;16.10;;;;;;;;;;5033151;28;20527;-55
2021/12/10 02:28:12;;;;;;;25.30;17.65;;;;;;;;;;5033077;28;20029;-56
2021/12/10 02:30:39;;;;;;;28.73;17.92;;;;;;;;;;5033663;28;20021;-57
2021/12/10 02:33:06;;;;;;;24.48;16.65;;;;;;;;;;5033493;28;20465;-57
2021/12/10 02:35:32;;;;;;;28.77;18.08;;;;;;;;;;5033399;28;20017;-57
2021/12/10 02:37:58;;;;;;;29.80;18.75;;;;;;;;;;5033365;28;20599;-58
2021/12/10 02:40:26;;;;;;;27.77;18.02;;;;;;;;;;5033379;28;20033;-58
2021/12/10 02:42:55;;;;;;;23.67;16.17;;;;;;;;;;5033341;28;20095;-57
2021/12/10 02:45:22;;;;;;;29.98;18.67;;;;;;;;;;5033241;28;20147;-58
2021/12/10 02:47:49;;;;;;;29.05;18.15;;;;;;;;;;5032664;28;20059;-56
2021/12/10 02:50:21;;;;;;;27.20;18.55;;;;;;;;;;5033237;28;20022;-58
2021/12/10 02:52:51;;;;;;;;;;;;;;;;;;5033628;28;20025;-55
2021/12/10 02:55:18;;;;;;;31.40;20.65;;;;;;;;;;5033298;28;19975;-58
2021/12/10 02:57:45;;;;;;;23.15;16.30;;;;;;;;;;5033333;28;20013;-57
2021/12/10 03:00:14;;;;;;;27.85;17.80;;;;;;;;;;5033297;28;20021;-57
2021/12/10 03:02:41;;;;;;;25.48;17.10;;;;;;;;;;5033144;28;20041;-57
2021/12/10 03:05:08;;;;;;;27.85;18.88;;;;;;;;;;5033025;28;20057;-58
2021/12/10 03:07:34;;;;;;;34.70;22.50;;;;;;;;;;5032536;28;20406;-58
2021/12/10 03:10:01;;;;;;;26.27;18.13;;;;;;;;;;5033064;28;20097;-56
2021/12/10 03:12:27;;;;;;;28.10;18.30;;;;;;;;;;5033218;28;20033;-57
2021/12/10 03:14:57;;;;;;;27.63;18.35;;;;;;;;;;5032921;28;20390;-58
2021/12/10 03:17:30;;;;;;;28.48;18.90;;;;;;;;;;5033010;28;20032;-58
2021/12/10 03:19:56;;;;;;;32.05;20.60;;;;;;;;;;5032993;28;20024;-57
2021/12/10 03:22:23;;;;;;;26.60;18.30;;;;;;;;;;5032943;28;20025;-57
2021/12/10 03:24:53;;;;;;;30.80;20.38;;;;;;;;;;5034195;28;20030;-59
2021/12/10 03:27:20;;;;;;;34.03;20.98;;;;;;;;;;5036427;28;20049;-58
2021/12/10 03:29:46;;;;;;;32.67;20.67;;;;;;;;;;5036639;28;20022;-58
2021/12/10 03:32:17;;;;;;;34.15;21.50;;;;;;;;;;5036999;28;20045;-58
2021/12/10 03:34:43;;;;;;;32.42;20.27;;;;;;;;;;5037076;28;20652;-56
2021/12/10 03:37:09;;;;;;;34.95;21.42;;;;;;;;;;5035489;28;20022;-59
2021/12/10 03:39:38;;;;;;;34.60;19.75;;;;;;;;;;5036725;28;20079;-58
2021/12/10 03:42:06;;;;;;;27.77;19.00;;;;;;;;;;5036470;28;20018;-57
2021/12/10 03:44:33;;;;;;;25.45;17.67;;;;;;;;;;5036630;28;20112;-59
2021/12/10 03:47:00;;;;;;;28.45;18.48;;;;;;;;;;5035951;28;20111;-57
2021/12/10 03:49:26;;;;;;;28.42;18.63;;;;;;;;;;5036230;28;20092;-59
2021/12/10 03:51:52;;;;;;;28.02;19.35;;;;;;;;;;5036387;28;20029;-59
2021/12/10 03:54:21;;;;;;;26.15;18.80;;;;;;;;;;5036400;28;20026;-57
2021/12/10 03:56:48;;;;;;;32.33;20.67;;;;;;;;;;5036443;28;20022;-59
2021/12/10 03:59:16;;;;;;;36.47;23.02;;;;;;;;;;5036290;28;20032;-59
2021/12/10 04:01:44;;;;;;;32.75;22.25;;;;;;;;;;5036074;28;20060;-58
2021/12/10 04:04:13;;;;;;;32.03;21.55;;;;;;;;;;5036370;28;20033;-57
2021/12/10 04:06:39;;;;;;;32.25;21.90;;;;;;;;;;5034425;28;20389;-59
2021/12/10 04:09:05;;;;;;;28.27;19.25;;;;;;;;;;5035726;28;20109;-57
2021/12/10 04:11:32;;;;;;;31.90;20.95;;;;;;;;;;5035988;28;20037;-57
2021/12/10 04:13:58;;;;;;;27.83;18.90;;;;;;;;;;5035940;28;20045;-58
2021/12/10 04:16:27;;;;;;;27.67;19.85;;;;;;;;;;5035945;28;20069;-58
2021/12/10 04:18:56;;;;;;;28.58;19.38;;;;;;;;;;5035863;28;20092;-57
2021/12/10 04:21:23;;;;;;;28.83;19.30;;;;;;;;;;5035780;28;20030;-59
2021/12/10 04:23:49;;;;;;;26.42;18.58;;;;;;;;;;5035960;28;20017;-59
2021/12/10 04:26:18;;;;;;;28.45;19.40;;;;;;;;;;5035772;28;20029;-59
2021/12/10 04:28:45;;;;;;;31.85;20.67;;;;;;;;;;5035321;28;20043;-58
2021/12/10 04:31:11;;;;;;;32.40;20.58;;;;;;;;;;5035656;28;20145;-58
2021/12/10 04:33:38;;;;;;;36.95;23.02;;;;;;;;;;5035614;28;20429;-58
2021/12/10 04:36:05;;;;;;;31.60;21.25;;;;;;;;;;5034516;28;20481;-58
2021/12/10 04:38:33;;;;;;;29.40;20.42;;;;;;;;;;5035564;28;20095;-56
2021/12/10 04:41:03;;;;;;;29.45;19.90;;;;;;;;;;5035551;28;20024;-59
2021/12/10 04:43:29;;;;;;;28.00;19.70;;;;;;;;;;5035297;28;20387;-57
2021/12/10 04:45:57;;;;;;;30.00;20.38;;;;;;;;;;5035263;28;20030;-57
2021/12/10 04:48:23;;;;;;;31.70;20.38;;;;;;;;;;5034682;28;20042;-57
2021/12/10 04:50:50;;;;;;;29.85;20.35;;;;;;;;;;5035181;28;20072;-57
2021/12/10 04:53:16;;;;;;;29.10;20.58;;;;;;;;;;5035236;28;20029;-57
2021/12/10 04:55:43;;;;;;;29.27;20.23;;;;;;;;;;5034095;28;20057;-57
2021/12/10 04:58:12;;;;;;;26.30;18.92;;;;;;;;;;5034411;28;20018;-57
2021/12/10 05:00:40;;;;;;;27.17;19.83;;;;;;;;;;5035097;28;20013;-57
2021/12/10 05:03:08;;;;;;;31.92;21.83;;;;;;;;;;5034920;28;20112;-54
2021/12/10 05:05:35;;;;;;;31.30;22.30;;;;;;;;;;5035195;28;20025;-57
2021/12/10 05:08:01;;;;;;;31.42;22.33;;;;;;;;;;5034513;28;20037;-57
2021/12/10 05:10:28;;;;;;;32.20;22.40;;;;;;;;;;5034544;28;20430;-57
2021/12/10 05:12:54;;;;;;;33.58;22.85;;;;;;;;;;5034984;28;20061;-58
2021/12/10 05:15:22;;;;;;;36.45;23.67;;;;;;;;;;5034590;28;20057;-57
2021/12/10 05:17:49;;;;;;;37.35;24.58;;;;;;;;;;5034913;28;20105;-57
2021/12/10 05:20:19;;;;;;;40.03;25.40;;;;;;;;;;5034781;28;20017;-57
2021/12/10 05:22:46;;;;;;;48.47;28.60;;;;;;;;;;5034435;28;20037;-57
2021/12/10 05:25:12;;;;;;;48.00;27.80;;;;;;;;;;5034767;28;20032;-58
2021/12/10 05:27:44;;;;;;;45.95;29.05;;;;;;;;;;5033496;28;20094;-58
2021/12/10 05:30:12;;;;;;;42.15;27.10;;;;;;;;;;5035263;28;20021;-58
2021/12/10 05:32:39;;;;;;;40.15;25.52;;;;;;;;;;5034579;28;20029;-58
2021/12/10 05:35:06;;;;;;;40.05;26.50;;;;;;;;;;5034431;28;20060;-57
2021/12/10 05:37:32;;;;;;;37.30;24.77;;;;;;;;;;5034584;28;20064;-58
2021/12/10 05:39:58;;;;;;;38.30;25.83;;;;;;;;;;5034398;28;20032;-59
2021/12/10 05:42:27;;;;;;;41.05;27.13;;;;;;;;;;5034267;28;20033;-58
2021/12/10 05:44:53;;;;;;;36.38;25.90;;;;;;;;;;5034167;28;20112;-58
2021/12/10 05:47:19;;;;;;;45.30;28.08;;;;;;;;;;5034064;28;20041;-58
2021/12/10 05:49:45;;;;;;;49.72;29.88;;;;;;;;;;5034144;28;20021;-57
2021/12/10 05:52:11;;;;;;;46.33;30.02;;;;;;;;;;5032656;28;20450;-57
2021/12/10 05:54:38;;;;;;;49.13;30.40;;;;;;;;;;5034033;28;20026;-58
2021/12/10 05:57:05;;;;;;;48.33;32.05;;;;;;;;;;5034081;28;20021;-57
2021/12/10 05:59:31;;;;;;;57.28;36.03;;;;;;;;;;5033752;28;20026;-57
2021/12/10 06:01:59;;;;;;;48.85;31.17;;;;;;;;;;5034085;28;20113;-55
2021/12/10 06:04:27;;;;;;;66.68;35.40;;;;;;;;;;5034040;28;20029;-58
2021/12/10 06:06:54;;;;;;;95.95;50.38;;;;;;;;;;5033716;28;20029;-57
2021/12/10 06:09:21;;;;;;;129.98;66.15;;;;;;;;;;5033962;28;20022;-57
2021/12/10 06:11:49;;;;;;;100.40;46.70;;;;;;;;;;5033818;28;20440;-57
2021/12/10 06:14:15;;;;;;;56.63;32.38;;;;;;;;;;5033638;28;20025;-54
2021/12/10 06:16:41;;;;;;;110.57;53.22;;;;;;;;;;5033478;28;20050;-53
2021/12/10 06:19:08;;;;;;;142.50;72.25;;;;;;;;;;5033752;28;20087;-54
2021/12/10 06:21:35;;;;;;;98.80;50.78;;;;;;;;;;5033720;28;20056;-54
2021/12/10 06:24:01;;;;;;;93.15;49.25;;;;;;;;;;5033604;28;20040;-53
2021/12/10 06:26:27;;;;;;;115.63;57.00;;;;;;;;;;5033733;28;20075;-54
2021/12/10 06:28:56;;;;;;;64.63;35.83;;;;;;;;;;5033484;28;20033;-53
2021/12/10 06:31:23;;;;;;;94.45;51.40;;;;;;;;;;5033783;28;20099;-53
2021/12/10 06:33:50;;;;;;;102.10;57.13;;;;;;;;;;5033507;28;20034;-56
2021/12/10 06:36:17;;;;;;;112.47;56.67;;;;;;;;;;5033734;28;20017;-58
2021/12/10 06:38:44;;;;;;;115.80;56.22;;;;;;;;;;5033346;28;20031;-53
2021/12/10 06:41:10;;;;;;;92.50;46.15;;;;;;;;;;5033312;28;20436;-57
2021/12/10 06:43:37;;;;;;;54.13;32.00;;;;;;;;;;5033211;28;20037;-53
2021/12/10 06:46:05;;;;;;;33.55;22.15;;;;;;;;;;5033391;28;20125;-58
2021/12/10 06:48:33;;;;;;;40.05;25.80;;;;;;;;;;5033345;28;20065;-51
2021/12/10 06:51:05;;;;;;;60.63;33.05;;;;;;;;;;5033393;28;20032;-60
2021/12/10 06:53:31;;;;;;;60.60;33.75;;;;;;;;;;5033274;28;20029;-51
2021/12/10 06:55:59;;;;;;;53.65;26.38;;;;;;;;;;5033362;28;20121;-58
2021/12/10 06:58:27;;;;;;;53.03;32.33;;;;;;;;;;5033159;28;20520;-57
2021/12/10 07:00:56;;;;;;;53.08;34.03;;;;;;;;;;5034928;28;20041;-50
2021/12/10 07:03:24;;;;;;;45.97;27.80;;;;;;;;;;5037683;28;20105;-57
2021/12/10 07:05:51;;;;;;;48.15;30.98;;;;;;;;;;5037347;28;20029;-56
2021/12/10 07:08:18;;;;;;;45.35;29.65;;;;;;;;;;5037128;28;20037;-53
2021/12/10 07:10:46;;;;;;;45.15;28.27;;;;;;;;;;5037373;28;20024;-58
2021/12/10 07:13:15;;;;;;;48.90;30.15;;;;;;;;;;5036897;28;20030;-53
2021/12/10 07:15:45;;;;;;;58.55;34.55;;;;;;;;;;5037034;28;20401;-56
2021/12/10 07:18:12;;;;;;;49.35;32.13;;;;;;;;;;5037298;28;20093;-55
2021/12/10 07:20:39;;;;;;;44.28;29.40;;;;;;;;;;5037101;28;20099;-53
2021/12/10 07:23:05;;;;;;;37.00;24.80;;;;;;;;;;5036997;28;20104;-52
2021/12/10 07:25:31;;;;;;;36.75;24.60;;;;;;;;;;5036996;28;20705;-55
2021/12/10 07:27:57;;;;;;;41.75;25.75;;;;;;;;;;5036781;28;20041;-58
2021/12/10 07:30:25;;;;;;;40.30;24.08;;;;;;;;;;5036828;28;20023;-54
2021/12/10 07:32:51;;;;;;;38.80;24.30;;;;;;;;;;5036920;28;20025;-57
2021/12/10 07:35:17;;;;;;;42.83;27.20;;;;;;;;;;5037023;28;20026;-55
2021/12/10 07:37:43;;;;;;;43.90;27.42;;;;;;;;;;5035366;28;20067;-58
2021/12/10 07:40:13;;;;;;;38.83;25.23;;;;;;;;;;5035531;28;20024;-58
2021/12/10 07:42:40;;;;;;;36.25;24.38;;;;;;;;;;5036805;28;20032;-54
2021/12/10 07:45:07;;;;;;;37.60;25.52;;;;;;;;;;5035228;28;20060;-57
2021/12/10 07:47:36;;;;;;;47.90;30.25;;;;;;;;;;5036437;28;20037;-51
2021/12/10 07:50:03;;;;;;;49.25;28.73;;;;;;;;;;5036757;28;20020;-58
2021/12/10 07:52:34;;;;;;;52.70;32.45;;;;;;;;;;5036542;28;20112;-53
2021/12/10 07:55:02;;;;;;;66.22;36.65;;;;;;;;;;5036287;28;20056;-58
2021/12/10 07:57:29;;;;;;;76.10;40.15;;;;;;;;;;5036287;28;20032;-58
2021/12/10 07:59:55;;;;;;;62.47;35.17;;;;;;;;;;5035128;28;20114;-57
2021/12/10 08:02:22;;;;;;;39.75;25.95;;;;;;;;;;5036236;28;20101;-58
2021/12/10 08:04:48;;;;;;;52.30;29.83;;;;;;;;;;5036316;28;20029;-58
2021/12/10 08:07:17;;;;;;;51.35;28.67;;;;;;;;;;5036114;28;20026;-57
2021/12/10 08:09:44;;;;;;;45.45;26.80;;;;;;;;;;5036032;28;20485;-58
2021/12/10 08:12:10;;;;;;;47.13;29.08;;;;;;;;;;5036003;28;20036;-55
2021/12/10 08:14:36;;;;;;;65.93;37.92;;;;;;;;;;5035669;28;20395;-56
2021/12/10 08:17:02;;;;;;;68.50;38.90;;;;;;;;;;5035971;28;20091;-57
2021/12/10 08:19:32;;;;;;;79.43;43.45;;;;;;;;;;5035875;28;20136;-56
2021/12/10 08:22:01;;;;;;;97.95;53.70;;;;;;;;;;5035800;28;20029;-52
2021/12/10 08:24:27;;;;;;;102.88;55.20;;;;;;;;;;5035633;28;20496;-54
2021/12/10 08:26:53;;;;;;;96.78;50.50;;;;;;;;;;5035051;28;20080;-52
2021/12/10 08:29:20;;;;;;;103.63;54.75;;;;;;;;;;5035655;28;20492;-57
2021/12/10 08:31:49;;;;;;;94.40;51.72;;;;;;;;;;5035790;28;20447;-56
2021/12/10 08:34:15;;;;;;;97.43;53.40;;;;;;;;;;5035664;28;20391;-56
2021/12/10 08:36:41;;;;;;;82.55;45.85;;;;;;;;;;5035659;28;20018;-57
2021/12/10 08:39:08;;;;;;;86.65;48.00;;;;;;;;;;5035297;28;20034;-56
2021/12/10 08:41:34;;;;;;;86.18;49.40;;;;;;;;;;5035366;28;20461;-57
2021/12/10 08:44:01;;;;;;;99.05;57.25;;;;;;;;;;5035159;28;20034;-55
2021/12/10 08:46:28;;;;;;;94.90;52.50;;;;;;;;;;5035338;28;20033;-55
2021/12/10 08:48:56;;;;;;;93.75;53.03;;;;;;;;;;5035245;28;20437;-56
2021/12/10 08:51:25;;;;;;;85.13;47.13;;;;;;;;;;5035323;28;20367;-56
2021/12/10 08:53:52;;;;;;;81.05;47.00;;;;;;;;;;5035007;28;20056;-56
2021/12/10 08:56:18;;;;;;;78.03;43.38;;;;;;;;;;5035382;28;20373;-56
2021/12/10 08:58:45;;;;;;;77.90;43.65;;;;;;;;;;5035140;28;20362;-51
2021/12/10 09:01:16;;;;;;;90.85;48.97;;;;;;;;;;5035207;28;20025;-55
2021/12/10 09:03:43;;;;;;;97.13;50.25;;;;;;;;;;5033840;28;20095;-58
2021/12/10 09:06:10;;;;;;;70.30;38.40;;;;;;;;;;5034208;28;20091;-57
2021/12/10 09:08:36;;;;;;;74.25;40.20;;;;;;;;;;5034330;28;20033;-57
2021/12/10 09:11:03;;;;;;;100.78;53.38;;;;;;;;;;5034351;28;20030;-56
2021/12/10 09:13:31;;;;;;;99.07;52.13;;;;;;;;;;5034342;28;20053;-61
2021/12/10 09:16:00;;;;;;;95.05;50.60;;;;;;;;;;5034153;28;20053;-56
2021/12/10 09:18:29;;;;;;;85.65;46.90;;;;;;;;;;5033031;28;20029;-57
2021/12/10 09:20:58;;;;;;;95.15;51.38;;;;;;;;;;5034264;28;20527;-58
2021/12/10 09:23:25;;;;;;;77.13;46.47;;;;;;;;;;5033647;28;20064;-57
2021/12/10 09:25:53;;;;;;;67.80;40.60;;;;;;;;;;5034178;28;20018;-57
2021/12/10 09:28:19;;;;;;;60.85;36.05;;;;;;;;;;5034341;28;20434;-55
2021/12/10 09:30:47;;;;;;;71.00;42.00;;;;;;;;;;5034552;28;20022;-46
2021/12/10 09:33:14;;;;;;;87.45;45.35;;;;;;;;;;5034187;28;20469;-46
2021/12/10 09:35:40;;;;;;;87.70;48.80;;;;;;;;;;5034044;28;20504;-44
2021/12/10 09:38:07;;;;;;;75.78;40.53;;;;;;;;;;5034230;28;20064;-46
2021/12/10 09:40:36;;;;;;;68.75;39.55;;;;;;;;;;5034258;28;20022;-46
2021/12/10 09:43:06;;;;;;;63.67;38.22;;;;;;;;;;5034460;28;20025;-47
2021/12/10 09:45:36;;;;;;;88.53;49.80;;;;;;;;;;5033927;28;20139;-49
2021/12/10 09:48:05;;;;;;;100.53;53.78;;;;;;;;;;5033938;28;20092;-47
2021/12/10 09:50:33;;;;;;;109.75;56.78;;;;;;;;;;5034265;28;20500;-47
2021/12/10 09:52:59;;;;;;;129.02;67.65;;;;;;;;;;5034104;28;20036;-48
2021/12/10 09:55:27;;;;;;;76.25;42.85;;;;;;;;;;5033868;28;20021;-48
2021/12/10 09:57:54;;;;;;;66.35;37.65;;;;;;;;;;5034254;28;20060;-48
2021/12/10 10:00:35;;;;;;;64.18;36.00;;;;;;;;;;5034178;28;20057;-48
2021/12/10 10:03:02;;;;;;;72.80;40.45;;;;;;;;;;5033718;28;20034;-48
2021/12/10 10:05:29;;;;;;;65.20;38.75;;;;;;;;;;5033110;28;20025;-47
2021/12/10 10:07:57;;;;;;;63.03;37.58;;;;;;;;;;5030180;28;20025;-50
2021/12/10 10:10:24;;;;;;;87.65;46.60;;;;;;;;;;5030050;28;20084;-51
2021/12/10 10:12:51;;;;;;;70.90;40.25;;;;;;;;;;5031055;28;20017;-49
2021/12/10 10:15:22;;;;;;;103.65;55.90;;;;;;;;;;5031702;28;20052;-50
2021/12/10 10:17:48;;;;;;;131.57;60.03;;;;;;;;;;5033771;28;20026;-49
2021/12/10 10:20:15;;;;;;;131.10;63.70;;;;;;;;;;5033848;28;20083;-49
2021/12/10 10:22:44;;;;;;;131.55;58.22;;;;;;;;;;5034040;28;20025;-47
2021/12/10 10:25:11;;;;;;;129.27;59.67;;;;;;;;;;5033498;28;20097;-51
2021/12/10 10:27:38;;;;;;;138.30;65.18;;;;;;;;;;5032860;28;20040;-47
2021/12/10 10:30:10;;;;;;;128.02;62.47;;;;;;;;;;5034031;28;20037;-50
2021/12/10 10:32:37;;;;;;;130.70;61.60;;;;;;;;;;5033565;28;20028;-49
2021/12/10 10:35:08;;;;;;;146.88;65.78;;;;;;;;;;5032590;28;20470;-49
2021/12/10 10:37:34;;;;;;;140.18;61.47;;;;;;;;;;5033441;28;20033;-49
2021/12/10 10:40:01;;;;;;;126.22;59.90;;;;;;;;;;5032965;28;20025;-49
2021/12/10 10:42:28;;;;;;;89.00;44.42;;;;;;;;;;5032943;28;20033;-49
2021/12/10 10:44:56;;;;;;;111.93;52.60;;;;;;;;;;5032474;28;20061;-50
2021/12/10 10:47:24;;;;;;;71.35;40.35;;;;;;;;;;5032147;28;20025;-51
2021/12/10 10:49:57;;;;;;;94.32;48.15;;;;;;;;;;5032661;28;20048;-47
2021/12/10 10:52:31;;;;;;;123.03;57.40;;;;;;;;;;5032774;28;20021;-51
2021/12/10 10:55:18;;;;;;;86.50;45.65;;;;;;;;;;5032679;28;20022;-49
2021/12/10 10:57:50;;;;;;;112.72;55.08;;;;;;;;;;5032245;28;20068;-45
2021/12/10 11:00:28;;;;;;;113.60;57.22;;;;;;;;;;5032525;28;20030;-49
2021/12/10 11:02:58;;;;;;;137.48;66.55;;;;;;;;;;5032609;28;20048;-46
2021/12/10 11:05:24;;;;;;;138.32;64.85;;;;;;;;;;5032465;28;20021;-51
2021/12/10 11:07:59;;;;;;;149.45;68.07;;;;;;;;;;5030840;28;20136;-48
2021/12/10 11:10:27;;;;;;;136.32;68.80;;;;;;;;;;5031359;28;20075;-50
2021/12/10 11:12:53;;;;;;;178.48;86.47;;;;;;;;;;5033335;28;20105;-48
2021/12/10 11:15:19;;;;;;;169.65;79.75;;;;;;;;;;5032964;28;20104;-49
2021/12/10 11:17:47;;;;;;;136.63;67.15;;;;;;;;;;5032953;28;20022;-48
2021/12/10 11:20:16;;;;;;;163.13;85.93;;;;;;;;;;5033116;28;20036;-48
2021/12/10 11:22:50;;;;;;;208.30;106.97;;;;;;;;;;5033095;28;20029;-52
2021/12/10 11:25:19;;;;;;;182.23;85.72;;;;;;;;;;5032721;28;20061;-48
2021/12/10 11:27:46;;;;;;;197.07;96.07;;;;;;;;;;5032457;28;20030;-50
2021/12/10 11:30:12;;;;;;;187.07;89.47;;;;;;;;;;5032971;28;20068;-49
2021/12/10 11:32:53;;;;;;;135.35;65.70;;;;;;;;;;5033058;28;20026;-47
2021/12/10 11:35:19;;;;;;;;;;;;;;;;;;5033177;28;20096;-44
2021/12/10 11:37:48;;;;;;;133.35;68.65;;;;;;;;;;5032678;28;19955;-46
2021/12/10 11:40:27;;;;;;;105.55;57.90;;;;;;;;;;5032829;28;20029;-50
2021/12/10 11:43:01;;;;;;;134.93;66.13;;;;;;;;;;5032940;28;20025;-50
2021/12/10 11:45:33;;;;;;;98.47;54.85;;;;;;;;;;5033176;28;20095;-50
2021/12/10 11:48:11;;;;;;;127.68;68.38;;;;;;;;;;5035697;28;20072;-53
2021/12/10 11:50:38;;;;;;;81.53;42.10;;;;;;;;;;5036597;28;20518;-49
2021/12/10 11:53:16;;;;;;;108.43;58.38;;;;;;;;;;5036707;28;20049;-49
2021/12/10 11:55:56;;;;;;;76.70;41.97;;;;;;;;;;5036480;28;20030;-55
2021/12/10 11:58:23;;;;;;;101.70;54.80;;;;;;;;;;5036368;28;20104;-50
2021/12/10 12:00:50;;;;;;;106.55;52.30;;;;;;;;;;5036166;28;20119;-48
2021/12/10 12:03:16;;;;;;;75.40;38.65;;;;;;;;;;5036228;28;20025;-49
2021/12/10 12:05:44;;;;;;;112.40;56.15;;;;;;;;;;5036128;28;20025;-48
2021/12/10 12:08:12;;;;;;;77.30;41.88;;;;;;;;;;5034459;28;20120;-47
2021/12/10 12:10:46;;;;;;;116.35;61.15;;;;;;;;;;5035250;28;20045;-45
2021/12/10 12:15:46;;;;;;;74.57;39.97;;;;;;;;;;5035961;28;20493;-48
2021/12/10 12:18:25;;;;;;;77.80;39.75;;;;;;;;;;5036405;28;20037;-48
2021/12/10 12:21:00;;;;;;;81.10;42.60;;;;;;;;;;5035952;28;20017;-47
2021/12/10 12:26:17;;;;;;;;;;;;;;;;;;5036719;28;20119;-47
2021/12/10 12:28:51;;;;;;;105.25;51.15;;;;;;;;;;5035754;28;19957;-52
2021/12/10 12:31:19;;;;;;;76.28;42.05;;;;;;;;;;5036036;28;20054;-48
2021/12/10 12:34:08;;;;;;;73.00;38.90;;;;;;;;;;5036073;28;20036;-50
2021/12/10 12:36:37;;;;;;;69.88;34.38;;;;;;;;;;4966350;28;20057;-51
2021/12/10 12:39:04;;;;;;;43.22;23.80;;;;;;;;;;4943375;28;20448;-47
2021/12/10 12:41:32;;;;;;;31.73;18.70;;;;;;;;;;4943543;28;20039;-51
2021/12/10 12:44:17;;;;;;;41.88;21.98;;;;;;;;;;4943286;28;20039;-50
2021/12/10 12:47:02;;;;;;;34.28;20.80;;;;;;;;;;4943227;28;20038;-48
2021/12/10 12:49:34;;;;;;;30.63;17.75;;;;;;;;;;4943043;28;20042;-49
2021/12/10 12:52:11;;;;;;;28.08;17.95;;;;;;;;;;4942848;28;20551;-48
2021/12/10 12:54:42;;;;;;;43.25;24.10;;;;;;;;;;4942998;28;20597;-50
2021/12/10 12:57:11;;;;;;;40.05;24.63;;;;;;;;;;4942278;28;20031;-49
2021/12/10 12:59:38;;;;;;;35.45;20.75;;;;;;;;;;4943271;28;20725;-50
2021/12/10 13:02:10;;;;;;;38.63;24.27;;;;;;;;;;4943267;28;20425;-49
2021/12/10 13:04:39;;;;;;;63.03;34.08;;;;;;;;;;4942891;28;20065;-54
2021/12/10 13:07:05;;;;;;;41.22;22.73;;;;;;;;;;4943436;28;20042;-46
2021/12/10 13:10:02;;;;;;;45.92;27.38;;;;;;;;;;4942797;28;20609;-46
2021/12/10 13:13:08;;;;;;;30.67;18.85;;;;;;;;;;4942933;28;20037;-46
2021/12/10 13:15:34;;;;;;;28.05;18.77;;;;;;;;;;5004452;28;20061;-46
2021/12/10 13:18:05;;;;;;;26.75;17.83;;;;;;;;;;5004265;28;20036;-50
2021/12/10 13:20:32;;;;;;;31.70;20.08;;;;;;;;;;5004529;28;21279;-49
2021/12/10 13:23:01;;;;;;;30.40;19.80;;;;;;;;;;5004767;28;20025;-50
2021/12/10 13:25:28;;;;;;;30.00;20.50;;;;;;;;;;5004740;28;20037;-52
2021/12/10 13:27:57;;;;;;;37.22;22.85;;;;;;;;;;5004579;28;20574;-50
2021/12/10 13:30:25;;;;;;;69.35;39.70;;;;;;;;;;5004736;28;20029;-49
2021/12/10 13:32:52;;;;;;;48.45;28.52;;;;;;;;;;5003966;28;20312;-48
2021/12/10 13:35:21;;;;;;;44.95;27.25;;;;;;;;;;5003951;28;20454;-46
2021/12/10 13:37:49;;;;;;;56.95;32.45;;;;;;;;;;5003315;28;20034;-46
2021/12/10 13:40:16;;;;;;;45.42;25.77;;;;;;;;;;5004041;28;20021;-47
2021/12/10 13:42:42;;;;;;;32.25;21.27;;;;;;;;;;5003437;28;20693;-49
2021/12/10 13:45:09;;;;;;;38.85;24.88;;;;;;;;;;5003723;28;20434;-51
2021/12/10 13:47:39;;;;;;;49.88;30.50;;;;;;;;;;5003449;28;20528;-47
2021/12/10 13:50:07;;;;;;;50.15;30.60;;;;;;;;;;5003748;28;20037;-45
2021/12/10 13:52:38;;;;;;;49.58;32.05;;;;;;;;;;5004027;28;20449;-47
2021/12/10 13:55:06;;;;;;;56.88;33.05;;;;;;;;;;5003665;28;20140;-46
2021/12/10 13:57:33;;;;;;;67.82;37.53;;;;;;;;;;5003799;28;20112;-45
2021/12/10 14:00:00;;;;;;;67.65;38.75;;;;;;;;;;5003966;28;20060;-45
2021/12/10 14:02:34;;;;;;;62.25;34.72;;;;;;;;;;5003607;28;20553;-44
2021/12/10 14:05:15;;;;;;;65.65;36.05;;;;;;;;;;5003479;28;20033;-49
2021/12/10 14:07:48;;;;;;;53.78;32.80;;;;;;;;;;5003022;28;20378;-48
2021/12/10 14:10:29;;;;;;;46.25;27.65;;;;;;;;;;5003531;28;20037;-47
2021/12/10 14:12:57;;;;;;;45.72;27.52;;;;;;;;;;5003055;28;20026;-47
2021/12/10 14:15:48;;;;;;;53.63;31.67;;;;;;;;;;5002834;28;20058;-46
2021/12/10 14:18:25;;;;;;;66.45;35.97;;;;;;;;;;5003063;28;20083;-45
2021/12/10 14:20:53;;;;;;;60.45;32.88;;;;;;;;;;5003111;28;20036;-46
2021/12/10 14:23:21;;;;;;;69.80;35.33;;;;;;;;;;5003170;28;20054;-45
2021/12/10 14:25:50;;;;;;;52.28;29.33;;;;;;;;;;5002989;28;20021;-46
2021/12/10 14:28:39;;;;;;;55.33;27.73;;;;;;;;;;5003238;28;20040;-48
2021/12/10 14:31:06;;;;;;;95.80;39.58;;;;;;;;;;5003053;28;20024;-48
2021/12/10 14:33:39;;;;;;;50.55;27.02;;;;;;;;;;5003503;28;20444;-46
2021/12/10 14:36:11;;;;;;;60.25;33.67;;;;;;;;;;5002731;28;20034;-49
2021/12/10 14:38:37;;;;;;;66.38;38.60;;;;;;;;;;5003290;28;20032;-48
2021/12/10 14:41:15;;;;;;;96.57;52.38;;;;;;;;;;5003470;28;20047;-46
2021/12/10 14:43:43;;;;;;;70.15;40.38;;;;;;;;;;5002731;28;20036;-47